Time;durP1;ratioP1;P1;durP2;ratioP2;P2;SDS_P1;SDS_P2;PMS_P1;PMS_P2;Temp;Humidity;BMP_temperature;BMP_pressure;BME280_temperature;BME280_humidity;BME280_pressure;Samples;Min_cycle;Max_cycle;Signal;HPM_P1;HPM_P2
2021/06/29 00:00:24;;;;;;;;;;;19.40;1.00;;;;;;5047383;28;19938;-58
2021/06/29 00:03:16;;;;;;;;;;;19.40;1.00;;;;;;5048579;28;19943;-60
2021/06/29 00:05:42;;;;;;;;;;;19.30;99.90;;;;;;5043300;28;19925;-60
2021/06/29 00:08:08;;;;;;;;;;;19.10;1.00;;;;;;5046790;28;19909;-60
2021/06/29 00:10:35;;;;;;;;;;;19.00;1.00;;;;;;5047581;28;20281;-60
2021/06/29 00:13:00;;;;;;;;;;;18.90;1.00;;;;;;5048376;28;19908;-60
2021/06/29 00:15:26;;;;;;;;;;;18.80;1.00;;;;;;5047591;28;20269;-59
2021/06/29 00:17:52;;;;;;;;;;;18.70;1.00;;;;;;5047644;28;19996;-59
2021/06/29 00:20:18;;;;;;;;;;;18.60;1.00;;;;;;5048162;28;20062;-58
2021/06/29 00:22:44;;;;;;;;;;;18.60;1.00;;;;;;5046543;28;20016;-60
2021/06/29 00:25:11;;;;;;;;;;;18.50;1.00;;;;;;5048062;28;19939;-59
2021/06/29 00:27:37;;;;;;;;;;;18.60;1.00;;;;;;5047353;28;20015;-59
2021/06/29 00:30:03;;;;;;;;;;;18.70;1.00;;;;;;5047752;28;20350;-60
2021/06/29 00:32:29;;;;;;;;;;;18.70;1.00;;;;;;5047248;28;19924;-60
2021/06/29 00:34:54;;;;;;;;;;;18.80;1.00;;;;;;5048152;28;19934;-60
2021/06/29 00:37:20;;;;;;;;;;;18.80;1.00;;;;;;5045534;28;19996;-60
2021/06/29 00:39:45;;;;;;;;;;;18.70;1.00;;;;;;5048109;28;19909;-59
2021/06/29 00:42:11;;;;;;;;;;;18.70;1.00;;;;;;5047917;28;20011;-58
2021/06/29 00:44:36;;;;;;;;;;;18.70;1.00;;;;;;5048055;28;19920;-59
2021/06/29 00:47:02;;;;;;;;;;;18.80;1.00;;;;;;5047011;28;20366;-58
2021/06/29 00:49:27;;;;;;;;;;;18.80;1.00;;;;;;5047065;28;20003;-60
2021/06/29 00:51:53;;;;;;;;;;;18.80;1.00;;;;;;5049678;28;19913;-60
2021/06/29 00:54:19;;;;;;;;;;;18.80;1.00;;;;;;5051859;28;19909;-60
2021/06/29 00:56:44;;;;;;;;;;;18.70;1.00;;;;;;5051286;28;19997;-59
2021/06/29 00:59:10;;;;;;;;;;;18.60;1.00;;;;;;5050669;28;19909;-59
2021/06/29 01:01:36;;;;;;;;;;;18.60;1.00;;;;;;5051515;28;19909;-57
2021/06/29 01:04:01;;;;;;;;;;;18.60;1.00;;;;;;5051703;28;19970;-58
2021/06/29 01:06:28;;;;;;;;;;;18.60;1.00;;;;;;5050010;28;19917;-60
2021/06/29 01:08:54;;;;;;;;;;;18.50;1.00;;;;;;5050645;28;19932;-60
2021/06/29 01:11:19;;;;;;;;;;;18.50;1.00;;;;;;5051517;28;19925;-59
2021/06/29 01:13:45;;;;;;;;;;;18.40;1.00;;;;;;5051559;28;19909;-60
2021/06/29 01:16:11;;;;;;;;;;;18.40;1.00;;;;;;5050508;28;19909;-60
2021/06/29 01:18:37;;;;;;;;;;;18.30;1.00;;;;;;5050333;28;20164;-60
2021/06/29 01:21:04;;;;;;;;;;;18.30;1.00;;;;;;5049972;28;20358;-60
2021/06/29 01:23:30;;;;;;;;;;;18.40;1.00;;;;;;5051186;28;19920;-59
2021/06/29 01:26:15;;;;;;;;;;;18.40;1.00;;;;;;5051193;28;20332;-60
2021/06/29 01:31:15;;;;;;;;;;;18.50;1.00;;;;;;5050353;28;20297;-60
2021/06/29 01:33:42;;;;;;;;;;;18.50;1.00;;;;;;5051171;28;19912;-60
2021/06/29 01:36:07;;;;;;;;;;;18.50;1.00;;;;;;5050077;28;20320;-60
2021/06/29 01:38:33;;;;;;;;;;;18.50;1.00;;;;;;5049729;28;19931;-60
2021/06/29 01:40:58;;;;;;;;;;;18.50;1.00;;;;;;5050275;28;20000;-60
2021/06/29 01:43:28;;;;;;;;;;;18.60;1.00;;;;;;5050704;28;19909;-60
2021/06/29 01:45:55;;;;;;;;;;;18.60;1.00;;;;;;5049844;28;19928;-60
2021/06/29 01:48:25;;;;;;;;;;;18.60;1.00;;;;;;5049682;28;19920;-59
2021/06/29 01:50:54;;;;;;;;;;;18.70;1.00;;;;;;5049630;28;19908;-59
2021/06/29 01:53:20;;;;;;;;;;;18.60;1.00;;;;;;5049762;28;20021;-60
2021/06/29 01:55:45;;;;;;;;;;;18.70;1.00;;;;;;5050401;28;20520;-58
2021/06/29 01:58:13;;;;;;;;;;;18.70;1.00;;;;;;5049200;28;19935;-60
2021/06/29 02:00:38;;;;;;;;;;;18.70;1.00;;;;;;5049227;28;19909;-59
2021/06/29 02:03:04;;;;;;;;;;;18.70;1.00;;;;;;5049509;28;19909;-59
2021/06/29 02:05:29;;;;;;;;;;;18.70;1.00;;;;;;5049514;28;20263;-60
2021/06/29 02:07:55;;;;;;;;;;;18.70;1.00;;;;;;5048711;28;20046;-59
2021/06/29 02:10:21;;;;;;;;;;;18.70;1.00;;;;;;5050019;28;19913;-60
2021/06/29 02:12:46;;;;;;;;;;;18.80;1.00;;;;;;5049861;28;19916;-60
2021/06/29 02:15:12;;;;;;;;;;;18.80;1.00;;;;;;5049721;28;19913;-60
2021/06/29 02:17:38;;;;;;;;;;;18.80;1.00;;;;;;5049285;28;19915;-60
2021/06/29 02:20:05;;;;;;;;;;;18.80;1.00;;;;;;5050260;28;20015;-59
2021/06/29 02:22:31;;;;;;;;;;;18.80;1.00;;;;;;5048571;28;19924;-60
2021/06/29 02:24:56;;;;;;;;;;;18.70;1.00;;;;;;5049687;28;19913;-59
2021/06/29 02:27:22;;;;;;;;;;;18.80;1.00;;;;;;5048768;28;19913;-60
2021/06/29 02:29:47;;;;;;;;;;;18.80;1.00;;;;;;5049595;28;19963;-60
2021/06/29 02:32:13;;;;;;;;;;;18.80;1.00;;;;;;5049134;28;19936;-59
2021/06/29 02:34:38;;;;;;;;;;;18.80;1.00;;;;;;5050071;28;19909;-59
2021/06/29 02:37:04;;;;;;;;;;;18.80;1.00;;;;;;5047803;28;19908;-60
2021/06/29 02:39:29;;;;;;;;;;;18.80;1.00;;;;;;5048882;28;19909;-59
2021/06/29 02:41:55;;;;;;;;;;;18.80;1.00;;;;;;5049342;28;20045;-59
2021/06/29 02:44:22;;;;;;;;;;;18.80;1.00;;;;;;5031582;28;20386;-59
2021/06/29 02:46:47;;;;;;;;;;;18.80;1.00;;;;;;5048582;28;19924;-59
2021/06/29 02:49:13;;;;;;;;;;;18.80;1.00;;;;;;5048770;28;19917;-59
2021/06/29 02:51:38;;;;;;;;;;;18.70;1.00;;;;;;5047697;28;19909;-56
2021/06/29 02:54:04;;;;;;;;;;;18.70;1.00;;;;;;5049396;28;19928;-59
2021/06/29 02:56:42;;;;;;;;;;;18.70;1.00;;;;;;5048586;28;19970;-60
2021/06/29 02:59:08;;;;;;;;;;;18.70;1.00;;;;;;5048082;28;19909;-58
2021/06/29 03:01:34;;;;;;;;;;;18.70;1.00;;;;;;5048332;28;19913;-59
2021/06/29 03:03:59;;;;;;;;;;;18.70;1.00;;;;;;5049089;28;20011;-58
2021/06/29 03:06:25;;;;;;;;;;;18.70;1.00;;;;;;5047263;28;20684;-59
2021/06/29 03:08:50;;;;;;;;;;;18.70;1.00;;;;;;5047816;28;19916;-57
2021/06/29 03:11:16;;;;;;;;;;;18.60;1.00;;;;;;5048691;28;19916;-57
2021/06/29 03:13:41;;;;;;;;;;;18.60;1.00;;;;;;5048839;28;19908;-56
2021/06/29 03:16:07;;;;;;;;;;;18.60;1.00;;;;;;5045958;28;20387;-60
2021/06/29 03:18:33;;;;;;;;;;;18.50;1.00;;;;;;5048003;28;20353;-59
2021/06/29 03:20:58;;;;;;;;;;;18.50;1.00;;;;;;5048166;28;20004;-59
2021/06/29 03:23:24;;;;;;;;;;;18.50;1.00;;;;;;5048171;28;20008;-59
2021/06/29 03:25:49;;;;;;;;;;;18.50;1.00;;;;;;5048378;28;19912;-60
2021/06/29 03:28:16;;;;;;;;;;;18.50;1.00;;;;;;5047804;28;19963;-60
2021/06/29 03:30:42;;;;;;;;;;;18.60;1.00;;;;;;5047941;28;19948;-60
2021/06/29 03:33:07;;;;;;;;;;;18.60;1.00;;;;;;5048689;28;19951;-60
2021/06/29 03:35:33;;;;;;;;;;;18.50;1.00;;;;;;5045829;28;19966;-58
2021/06/29 03:37:58;;;;;;;;;;;18.50;1.00;;;;;;5046622;28;19931;-57
2021/06/29 03:40:24;;;;;;;;;;;18.50;1.00;;;;;;5048534;28;20515;-60
2021/06/29 03:42:49;;;;;;;;;;;18.50;1.00;;;;;;5047895;28;19996;-60
2021/06/29 03:45:15;;;;;;;;;;;18.40;1.00;;;;;;5047830;28;19913;-59
2021/06/29 03:47:40;;;;;;;;;;;18.30;1.00;;;;;;5047517;28;19979;-59
2021/06/29 03:50:06;;;;;;;;;;;18.30;1.00;;;;;;5048551;28;20281;-57
2021/06/29 03:52:32;;;;;;;;;;;18.20;1.00;;;;;;5047419;28;19916;-60
2021/06/29 03:54:57;;;;;;;;;;;18.10;1.00;;;;;;5048003;28;20250;-56
2021/06/29 03:57:23;;;;;;;;;;;18.10;1.00;;;;;;5047177;28;19916;-57
2021/06/29 03:59:48;;;;;;;;;;;18.20;1.00;;;;;;5048308;28;20448;-59
2021/06/29 04:02:14;;;;;;;;;;;18.20;1.00;;;;;;5047537;28;20368;-59
2021/06/29 04:04:39;;;;;;;;;;;18.20;1.00;;;;;;5048313;28;19943;-62
2021/06/29 04:07:08;;;;;;;;;;;18.20;1.00;;;;;;5046782;28;19912;-61
2021/06/29 04:09:33;;;;;;;;;;;18.20;1.00;;;;;;5028248;28;19913;-59
2021/06/29 04:11:59;;;;;;;;;;;18.30;1.00;;;;;;5028002;28;20263;-61
2021/06/29 04:14:24;;;;;;;;;;;18.30;1.00;;;;;;5028490;28;19957;-62
2021/06/29 04:16:50;;;;;;;;;;;18.40;1.00;;;;;;5027742;28;19909;-59
2021/06/29 04:19:16;;;;;;;;;;;18.40;1.00;;;;;;5035155;28;20023;-62
2021/06/29 04:21:41;;;;;;;;;;;18.40;1.00;;;;;;5046525;28;20019;-60
2021/06/29 04:24:07;;;;;;;;;;;18.50;1.00;;;;;;5048411;28;19909;-62
2021/06/29 04:26:33;;;;;;;;;;;18.50;1.00;;;;;;5050175;28;19939;-62
2021/06/29 04:28:59;;;;;;;;;;;18.50;1.00;;;;;;5050868;28;19974;-62
2021/06/29 04:31:24;;;;;;;;;;;18.50;1.00;;;;;;5051338;28;20328;-62
2021/06/29 04:33:50;;;;;;;;;;;18.40;1.00;;;;;;5052068;28;19916;-60
2021/06/29 04:36:15;;;;;;;;;;;18.40;1.00;;;;;;5051306;28;20123;-59
2021/06/29 04:38:41;;;;;;;;;;;18.40;1.00;;;;;;5047533;28;19920;-60
2021/06/29 04:41:06;;;;;;;;;;;18.40;1.00;;;;;;5047096;28;19913;-61
2021/06/29 04:43:32;;;;;;;;;;;18.40;1.00;;;;;;5051550;28;19920;-60
2021/06/29 04:45:58;;;;;;;;;;;18.40;1.00;;;;;;5050807;28;20032;-60
2021/06/29 04:48:24;;;;;;;;;;;18.30;1.00;;;;;;5050784;28;19993;-60
2021/06/29 04:50:49;;;;;;;;;;;18.30;1.00;;;;;;5050985;28;20417;-60
2021/06/29 04:53:15;;;;;;;;;;;18.30;1.00;;;;;;5050606;28;19944;-60
2021/06/29 04:55:40;;;;;;;;;;;18.30;1.00;;;;;;5050656;28;19908;-61
2021/06/29 04:58:06;;;;;;;;;;;18.30;1.00;;;;;;5047081;28;19982;-61
2021/06/29 05:00:32;;;;;;;;;;;18.40;1.00;;;;;;5047806;28;19920;-61
2021/06/29 05:02:57;;;;;;;;;;;18.40;1.00;;;;;;5048377;28;20350;-61
2021/06/29 05:05:23;;;;;;;;;;;18.40;1.00;;;;;;5048141;28;19927;-61
2021/06/29 05:07:49;;;;;;;;;;;18.50;1.00;;;;;;5046210;28;19954;-61
2021/06/29 05:10:14;;;;;;;;;;;18.50;1.00;;;;;;5046947;28;19931;-61
2021/06/29 05:12:41;;;;;;;;;;;18.50;1.00;;;;;;5048221;28;19916;-60
2021/06/29 05:15:08;;;;;;;;;;;18.50;1.00;;;;;;5048501;28;19912;-60
2021/06/29 05:17:34;;;;;;;;;;;18.60;1.00;;;;;;5046646;28;19913;-61
2021/06/29 05:19:59;;;;;;;;;;;18.70;1.00;;;;;;5047485;28;19912;-58
2021/06/29 05:22:24;;;;;;;;;;;18.70;1.00;;;;;;5045351;28;20589;-61
2021/06/29 05:24:50;;;;;;;;;;;18.60;1.00;;;;;;5047412;28;19913;-61
2021/06/29 05:27:15;;;;;;;;;;;18.60;1.00;;;;;;5047252;28;19909;-62
2021/06/29 05:29:41;;;;;;;;;;;18.60;1.00;;;;;;5050288;28;19927;-61
2021/06/29 05:32:07;;;;;;;;;;;18.60;1.00;;;;;;5063475;28;19924;-63
2021/06/29 05:34:33;;;;;;;;;;;18.70;1.00;;;;;;5047840;28;20369;-61
2021/06/29 05:36:59;;;;;;;;;;;18.70;1.00;;;;;;5054367;28;19912;-60
2021/06/29 05:39:24;;;;;;;;;;;18.70;1.00;;;;;;5067287;28;19919;-62
2021/06/29 05:41:50;;;;;;;;;;;18.60;1.00;;;;;;5067301;28;20370;-62
2021/06/29 05:44:15;;;;;;;;;;;18.50;1.00;;;;;;5068221;28;19909;-62
2021/06/29 05:46:41;;;;;;;;;;;18.50;1.00;;;;;;5066520;28;20005;-61
2021/06/29 05:49:10;;;;;;;;;;;18.40;1.00;;;;;;5066517;28;19962;-60
2021/06/29 05:51:36;;;;;;;;;;;18.30;1.00;;;;;;5065712;28;19912;-63
2021/06/29 05:54:02;;;;;;;;;;;18.20;1.00;;;;;;5053852;28;20304;-61
2021/06/29 05:56:27;;;;;;;;;;;18.20;1.00;;;;;;5047670;28;19967;-61
2021/06/29 05:58:53;;;;;;;;;;;18.20;1.00;;;;;;5046875;28;19951;-60
2021/06/29 06:01:18;;;;;;;;;;;18.10;1.00;;;;;;5047539;28;20006;-61
2021/06/29 06:03:44;;;;;;;;;;;18.00;1.00;;;;;;5047653;28;19931;-68
2021/06/29 06:06:09;;;;;;;;;;;18.00;1.00;;;;;;5046797;28;19916;-61
2021/06/29 06:08:35;;;;;;;;;;;18.10;1.00;;;;;;5046677;28;19969;-61
2021/06/29 06:11:00;;;;;;;;;;;18.20;1.00;;;;;;5047347;28;20486;-62
2021/06/29 06:13:26;;;;;;;;;;;18.40;1.00;;;;;;5047735;28;19909;-62
2021/06/29 06:15:53;;;;;;;;;;;18.40;1.00;;;;;;5047291;28;19916;-61
2021/06/29 06:18:19;;;;;;;;;;;18.40;1.00;;;;;;5047084;28;19912;-61
2021/06/29 06:20:45;;;;;;;;;;;18.50;1.00;;;;;;5046517;28;20526;-62
2021/06/29 06:23:10;;;;;;;;;;;18.60;1.00;;;;;;5046361;28;19923;-62
2021/06/29 06:25:36;;;;;;;;;;;18.60;1.00;;;;;;5047481;28;19912;-62
2021/06/29 06:28:02;;;;;;;;;;;18.80;1.00;;;;;;5046205;28;19908;-62
2021/06/29 06:30:27;;;;;;;;;;;19.20;1.00;;;;;;5047268;28;19939;-61
2021/06/29 06:32:53;;;;;;;;;;;19.40;1.00;;;;;;5061151;28;19921;-61
2021/06/29 06:35:19;;;;;;;;;;;19.50;1.00;;;;;;5047533;28;19998;-62
2021/06/29 06:37:44;;;;;;;;;;;19.80;1.00;;;;;;5044945;28;19913;-61
2021/06/29 06:40:10;;;;;;;;;;;20.00;99.90;;;;;;5047547;28;19913;-62
2021/06/29 06:42:36;;;;;;;;;;;20.00;99.90;;;;;;5047472;28;19912;-62
2021/06/29 06:45:02;;;;;;;;;;;19.90;99.90;;;;;;5049124;28;19919;-63
2021/06/29 06:47:28;;;;;;;;;;;19.90;1.00;;;;;;5047471;28;19913;-61
2021/06/29 06:49:53;;;;;;;;;;;19.90;99.90;;;;;;5049792;28;20196;-63
2021/06/29 06:52:19;;;;;;;;;;;20.00;99.90;;;;;;5047524;28;19942;-63
2021/06/29 06:54:44;;;;;;;;;;;20.50;99.90;;;;;;5049331;28;19908;-61
2021/06/29 06:57:10;;;;;;;;;;;22.00;1.00;;;;;;5048475;28;19982;-62
2021/06/29 06:59:36;;;;;;;;;;;24.00;43.40;;;;;;5048505;28;20261;-63
2021/06/29 07:02:01;;;;;;;;;;;25.70;1.00;;;;;;5048310;28;19909;-61
2021/06/29 07:04:27;;;;;;;;;;;27.70;1.00;;;;;;5048833;28;20381;-64
2021/06/29 07:06:53;;;;;;;;;;;29.80;99.90;;;;;;5046574;28;19959;-62
2021/06/29 07:09:18;;;;;;;;;;;31.80;99.90;;;;;;5047828;28;19956;-62
2021/06/29 07:11:44;;;;;;;;;;;33.50;99.90;;;;;;5048617;28;19913;-62
2021/06/29 07:14:10;;;;;;;;;;;35.20;99.90;;;;;;5048888;28;19924;-62
2021/06/29 07:16:35;;;;;;;;;;;36.40;99.90;;;;;;5048339;28;19909;-62
2021/06/29 07:19:01;;;;;;;;;;;37.30;99.90;;;;;;5048391;28;20390;-62
2021/06/29 07:21:27;;;;;;;;;;;38.10;99.90;;;;;;5047479;28;20003;-62
2021/06/29 07:23:53;;;;;;;;;;;38.70;99.90;;;;;;5068616;28;20323;-63
2021/06/29 07:26:19;;;;;;;;;;;39.20;99.90;;;;;;5068577;28;19913;-63
2021/06/29 07:28:44;;;;;;;;;;;39.80;99.90;;;;;;5068101;28;19916;-63
2021/06/29 07:31:10;;;;;;;;;;;40.50;99.90;;;;;;5068366;28;20045;-63
2021/06/29 07:33:36;;;;;;;;;;;41.20;99.90;;;;;;5057266;28;19909;-63
2021/06/29 07:36:02;;;;;;;;;;;41.30;99.90;;;;;;5047423;28;19912;-62
2021/06/29 07:38:27;;;;;;;;;;;41.30;99.90;;;;;;5047227;28;19913;-63
2021/06/29 07:40:53;;;;;;;;;;;41.40;99.90;;;;;;5048659;28;20396;-61
2021/06/29 07:43:20;;;;;;;;;;;41.20;99.90;;;;;;5048454;28;20004;-63
2021/06/29 07:45:45;;;;;;;;;;;41.40;99.90;;;;;;5047835;28;19948;-62
2021/06/29 07:48:11;;;;;;;;;;;41.60;99.90;;;;;;5047874;28;19913;-63
2021/06/29 07:50:36;;;;;;;;;;;40.90;99.90;;;;;;5048120;28;19988;-63
2021/06/29 07:53:04;;;;;;;;;;;40.60;99.90;;;;;;5047655;28;19912;-63
2021/06/29 07:55:29;;;;;;;;;;;40.00;99.90;;;;;;5048533;28;19916;-62
2021/06/29 07:57:56;;;;;;;;;;;40.00;98.70;;;;;;5039054;28;19909;-62
2021/06/29 08:00:21;;;;;;;;;;;40.00;96.40;;;;;;5047128;28;20371;-63
2021/06/29 08:02:47;;;;;;;;;;;40.50;94.40;;;;;;5048178;28;19912;-63
2021/06/29 08:05:12;;;;;;;;;;;41.50;99.90;;;;;;5047934;28;20009;-63
2021/06/29 08:07:38;;;;;;;;;;;42.30;89.70;;;;;;5045569;28;19913;-62
2021/06/29 08:10:04;;;;;;;;;;;41.80;80.50;;;;;;5048451;28;19956;-63
2021/06/29 08:12:30;;;;;;;;;;;41.90;73.50;;;;;;5048213;28;19909;-63
2021/06/29 08:14:55;;;;;;;;;;;42.30;67.70;;;;;;5048211;28;19915;-62
2021/06/29 08:17:21;;;;;;;;;;;39.40;55.30;;;;;;5046668;28;20397;-62
2021/06/29 08:19:48;;;;;;;;;;;40.90;55.20;;;;;;5047370;28;19919;-62
2021/06/29 08:22:14;;;;;;;;;;;40.70;52.50;;;;;;5046055;28;19939;-63
2021/06/29 08:24:39;;;;;;;;;;;41.40;50.80;;;;;;5048245;28;19917;-63
2021/06/29 08:27:05;;;;;;;;;;;42.50;49.80;;;;;;5047810;28;20300;-63
2021/06/29 08:29:30;;;;;;;;;;;42.80;46.50;;;;;;5048064;28;19974;-62
2021/06/29 08:31:56;;;;;;;;;;;41.60;40.90;;;;;;5047121;28;19908;-63
2021/06/29 08:34:21;;;;;;;;;;;42.70;41.00;;;;;;5047838;28;20234;-63
2021/06/29 08:36:47;;;;;;;;;;;43.60;38.80;;;;;;5046150;28;20407;-63
2021/06/29 08:39:14;;;;;;;;;;;44.50;36.20;;;;;;5047357;28;19913;-62
2021/06/29 08:41:42;;;;;;;;;;;41.10;27.10;;;;;;5047833;28;19999;-62
2021/06/29 08:44:07;;;;;;;;;;;38.90;25.30;;;;;;5048021;28;19971;-62
2021/06/29 08:46:33;;;;;;;;;;;39.00;38.90;;;;;;5047637;28;19932;-63
2021/06/29 08:48:59;;;;;;;;;;;39.60;27.80;;;;;;5046970;28;19919;-63
2021/06/29 08:51:24;;;;;;;;;;;40.40;29.20;;;;;;5046833;28;19913;-63
2021/06/29 08:53:50;;;;;;;;;;;40.50;28.50;;;;;;5048076;28;20007;-62
2021/06/29 08:56:15;;;;;;;;;;;41.30;28.30;;;;;;5047217;28;19973;-63
2021/06/29 08:58:41;;;;;;;;;;;42.20;27.50;;;;;;5046899;28;19909;-62
2021/06/29 09:01:07;;;;;;;;;;;42.20;26.30;;;;;;5047291;28;19909;-63
2021/06/29 09:03:33;;;;;;;;;;;42.90;24.50;;;;;;5047724;28;20318;-63
2021/06/29 09:05:58;;;;;;;;;;;42.60;22.50;;;;;;5047111;28;19924;-63
2021/06/29 09:08:24;;;;;;;;;;;43.70;22.60;;;;;;5055134;28;19912;-63
2021/06/29 09:11:02;;;;;;;;;;;44.00;20.80;;;;;;5067842;28;19920;-63
2021/06/29 09:13:27;;;;;;;;;;;41.90;17.20;;;;;;5071365;28;19938;-63
2021/06/29 09:15:53;;;;;;;;;;;41.40;16.10;;;;;;5070708;28;20482;-63
2021/06/29 09:18:23;;;;;;;;;;;42.70;17.20;;;;;;5051398;28;19912;-63
2021/06/29 09:20:50;;;;;;;;;;;43.00;15.90;;;;;;5030662;28;19924;-62
2021/06/29 09:23:22;;;;;;;;;;;43.40;16.00;;;;;;5048046;28;19924;-63
2021/06/29 09:25:50;;;;;;;;;;;44.10;14.50;;;;;;5050846;28;20281;-63
2021/06/29 09:28:21;;;;;;;;;;;43.20;11.30;;;;;;5049809;28;19936;-63
2021/06/29 09:31:07;;;;;;;;;;;42.80;9.50;;;;;;5050334;28;19909;-62
2021/06/29 09:33:35;;;;;;;;;;;42.50;9.40;;;;;;5050678;28;19913;-63
2021/06/29 09:36:02;;;;;;;;;;;42.90;9.30;;;;;;5050362;28;19966;-63
2021/06/29 09:38:32;;;;;;;;;;;43.00;8.90;;;;;;5049131;28;19916;-63
2021/06/29 09:40:59;;;;;;;;;;;42.40;8.00;;;;;;5050356;28;19923;-62
2021/06/29 09:43:25;;;;;;;;;;;39.80;4.80;;;;;;5051073;28;20328;-63
2021/06/29 09:45:54;;;;;;;;;;;38.90;4.80;;;;;;5055630;28;19959;-63
2021/06/29 09:48:29;;;;;;;;;;;38.00;5.80;;;;;;5049447;28;19908;-63
2021/06/29 09:50:58;;;;;;;;;;;37.90;8.00;;;;;;5049879;28;20004;-63
2021/06/29 09:53:26;;;;;;;;;;;37.80;8.60;;;;;;5050403;28;19909;-63
2021/06/29 09:55:53;;;;;;;;;;;37.10;9.70;;;;;;5050458;28;19957;-63
2021/06/29 09:58:19;;;;;;;;;;;36.90;11.20;;;;;;5049365;28;20301;-64
2021/06/29 10:00:46;;;;;;;;;;;37.10;13.50;;;;;;5050122;28;20420;-64
2021/06/29 10:03:18;;;;;;;;;;;37.80;15.60;;;;;;5050185;28;19995;-64
2021/06/29 10:05:43;;;;;;;;;;;38.10;17.10;;;;;;5049606;28;19916;-64
2021/06/29 10:08:09;;;;;;;;;;;39.50;18.80;;;;;;5048234;28;19955;-64
2021/06/29 10:10:34;;;;;;;;;;;39.40;17.20;;;;;;5050113;28;19931;-64
2021/06/29 10:13:13;;;;;;;;;;;39.60;16.80;;;;;;5049810;28;19978;-63
2021/06/29 10:15:38;;;;;;;;;;;40.30;17.00;;;;;;5049671;28;20340;-63
2021/06/29 10:18:04;;;;;;;;;;;40.20;15.80;;;;;;5049479;28;20008;-62
2021/06/29 10:20:38;;;;;;;;;;;40.00;15.30;;;;;;5048801;28;19916;-66
2021/06/29 10:23:03;;;;;;;;;;;40.00;15.80;;;;;;5048170;28;19975;-63
2021/06/29 10:25:29;;;;;;;;;;;39.70;15.80;;;;;;5050244;28;19956;-63
2021/06/29 10:27:55;;;;;;;;;;;38.90;14.70;;;;;;5049017;28;20344;-63
2021/06/29 10:30:24;;;;;;;;;;;38.70;15.30;;;;;;5051153;28;20335;-63
2021/06/29 10:32:49;;;;;;;;;;;39.30;16.40;;;;;;5065246;28;19966;-63
2021/06/29 10:35:15;;;;;;;;;;;39.60;15.80;;;;;;5049864;28;19913;-63
2021/06/29 10:37:40;;;;;;;;;;;39.90;16.20;;;;;;5047107;28;19970;-63
2021/06/29 10:40:08;;;;;;;;;;;39.90;15.90;;;;;;5049055;28;20313;-63
2021/06/29 10:42:34;;;;;;;;;;;39.80;16.10;;;;;;5053768;28;19962;-63
2021/06/29 10:45:10;;;;;;;;;;;39.50;16.10;;;;;;5069113;28;19952;-63
2021/06/29 10:47:36;;;;;;;;;;;38.70;15.90;;;;;;5028701;28;19915;-63
2021/06/29 10:50:03;;;;;;;;;;;37.80;16.00;;;;;;5028821;28;19913;-63
2021/06/29 10:52:31;;;;;;;;;;;37.50;17.90;;;;;;5041534;28;19916;-63
2021/06/29 10:54:56;;;;;;;;;;;37.70;19.10;;;;;;5046473;28;19909;-63
2021/06/29 10:57:26;;;;;;;;;;;37.90;19.30;;;;;;5047972;28;20011;-63
2021/06/29 10:59:55;;;;;;;;;;;37.00;19.00;;;;;;5048747;28;20023;-63
2021/06/29 11:02:28;;;;;;;;;;;36.80;20.90;;;;;;5048439;28;19932;-63
2021/06/29 11:04:54;;;;;;;;;;;36.10;21.20;;;;;;5048968;28;19916;-63
2021/06/29 11:07:25;;;;;;;;;;;35.80;23.60;;;;;;5046561;28;20266;-63
2021/06/29 11:10:00;;;;;;;;;;;36.10;26.00;;;;;;5048857;28;20398;-63
2021/06/29 11:12:33;;;;;;;;;;;34.60;25.20;;;;;;5049032;28;19913;-62
2021/06/29 11:14:59;;;;;;;;;;;33.30;27.80;;;;;;5049010;28;19912;-63
2021/06/29 11:17:43;;;;;;;;;;;32.70;30.30;;;;;;5047943;28;19919;-63
2021/06/29 11:20:12;;;;;;;;;;;33.20;35.30;;;;;;5048222;28;20613;-63
2021/06/29 11:22:50;;;;;;;;;;;34.20;39.70;;;;;;5047812;28;20277;-63
2021/06/29 11:25:29;;;;;;;;;;;35.10;42.10;;;;;;5039850;28;19925;-63
2021/06/29 11:28:02;;;;;;;;;;;34.90;42.20;;;;;;5047836;28;19919;-63
2021/06/29 11:30:46;;;;;;;;;;;33.90;40.10;;;;;;5048783;28;19924;-63
2021/06/29 11:33:30;;;;;;;;;;;33.20;43.60;;;;;;5048349;28;19909;-62
2021/06/29 11:35:56;;;;;;;;;;;33.50;47.20;;;;;;5047504;28;19909;-62
2021/06/29 11:38:35;;;;;;;;;;;33.70;49.50;;;;;;5045891;28;19912;-63
2021/06/29 11:41:19;;;;;;;;;;;33.70;51.20;;;;;;5048475;28;20274;-62
2021/06/29 11:43:45;;;;;;;;;;;33.80;52.60;;;;;;5048843;28;19912;-62
2021/06/29 11:46:10;;;;;;;;;;;34.10;53.80;;;;;;5050521;28;19916;-61
2021/06/29 11:48:42;;;;;;;;;;;34.40;54.80;;;;;;5047456;28;19919;-62
2021/06/29 11:51:08;;;;;;;;;;;33.80;55.30;;;;;;5047367;28;19920;-61
2021/06/29 11:53:37;;;;;;;;;;;33.40;56.40;;;;;;5047734;28;19917;-61
2021/06/29 11:56:02;;;;;;;;;;;32.50;57.30;;;;;;5047145;28;19912;-61
2021/06/29 11:58:28;;;;;;;;;;;32.00;59.40;;;;;;5046490;28;19916;-61
2021/06/29 12:00:54;;;;;;;;;;;31.30;60.60;;;;;;5047141;28;20010;-63
2021/06/29 12:03:20;;;;;;;;;;;30.80;62.00;;;;;;5047797;28;19909;-63
2021/06/29 12:05:46;;;;;;;;;;;30.20;64.90;;;;;;5047785;28;19917;-61
2021/06/29 12:08:12;;;;;;;;;;;29.50;68.30;;;;;;5046887;28;19913;-63
2021/06/29 12:10:40;;;;;;;;;;;28.90;72.70;;;;;;5048646;28;19999;-62
2021/06/29 12:13:15;;;;;;;;;;;28.60;79.40;;;;;;5048553;28;20270;-62
2021/06/29 12:15:45;;;;;;;;;;;28.20;84.60;;;;;;5048182;28;19913;-61
2021/06/29 12:18:15;;;;;;;;;;;28.20;90.90;;;;;;5046841;28;20339;-61
2021/06/29 12:20:42;;;;;;;;;;;28.10;92.60;;;;;;5046898;28;19916;-62
2021/06/29 12:23:09;;;;;;;;;;;28.20;94.40;;;;;;5047152;28;19909;-62
2021/06/29 12:25:42;;;;;;;;;;;28.50;96.60;;;;;;5047457;28;19917;-61
2021/06/29 12:28:10;;;;;;;;;;;28.90;98.30;;;;;;5047330;28;19984;-62
2021/06/29 12:30:36;;;;;;;;;;;29.20;99.30;;;;;;5047679;28;19912;-62
2021/06/29 12:33:12;;;;;;;;;;;29.50;99.90;;;;;;5048478;28;20566;-62
2021/06/29 12:35:38;;;;;;;;;;;29.60;99.90;;;;;;5047573;28;19913;-62
2021/06/29 12:38:05;;;;;;;;;;;29.70;99.90;;;;;;5046659;28;19920;-62
2021/06/29 12:40:32;;;;;;;;;;;29.40;99.90;;;;;;5047860;28;19912;-62
2021/06/29 12:42:58;;;;;;;;;;;29.20;99.90;;;;;;5048853;28;19913;-62
2021/06/29 12:45:27;;;;;;;;;;;28.90;99.90;;;;;;5047389;28;19960;-62
2021/06/29 12:48:03;;;;;;;;;;;29.00;99.90;;;;;;5050339;28;19955;-62
2021/06/29 12:50:28;;;;;;;;;;;29.10;99.90;;;;;;5055733;28;20053;-61
2021/06/29 12:52:54;;;;;;;;;;;29.20;99.90;;;;;;5050771;28;20003;-62
2021/06/29 12:55:23;;;;;;;;;;;29.20;99.90;;;;;;5051512;28;20375;-61
2021/06/29 12:57:59;;;;;;;;;;;29.10;99.90;;;;;;5050611;28;20350;-62
2021/06/29 13:00:25;;;;;;;;;;;28.90;99.90;;;;;;5051356;28;20416;-61
2021/06/29 13:02:52;;;;;;;;;;;28.60;99.90;;;;;;5050149;28;19913;-62
2021/06/29 13:05:19;;;;;;;;;;;28.20;99.90;;;;;;5051126;28;20326;-62
2021/06/29 13:07:44;;;;;;;;;;;28.00;99.90;;;;;;5048990;28;19913;-62
2021/06/29 13:10:10;;;;;;;;;;;27.80;99.90;;;;;;5051346;28;20392;-63
2021/06/29 13:12:35;;;;;;;;;;;27.70;99.90;;;;;;5051282;28;19913;-61
2021/06/29 13:15:04;;;;;;;;;;;27.40;99.90;;;;;;5051237;28;19909;-61
2021/06/29 13:17:29;;;;;;;;;;;27.20;99.90;;;;;;5049485;28;19921;-60
2021/06/29 13:20:04;;;;;;;;;;;27.10;99.90;;;;;;5050414;28;19915;-61
2021/06/29 13:22:38;;;;;;;;;;;27.00;99.90;;;;;;5049418;28;19909;-61
2021/06/29 13:25:04;;;;;;;;;;;26.90;99.90;;;;;;5051411;28;20321;-59
2021/06/29 13:27:31;;;;;;;;;;;26.80;99.90;;;;;;5049679;28;19913;-61
2021/06/29 13:30:01;;;;;;;;;;;26.70;99.90;;;;;;5050544;28;19924;-61
2021/06/29 13:32:27;;;;;;;;;;;26.50;99.90;;;;;;5049843;28;19909;-60
2021/06/29 13:35:21;;;;;;;;;;;26.50;99.90;;;;;;5050909;28;20314;-61
2021/06/29 13:37:51;;;;;;;;;;;26.40;99.90;;;;;;5042595;28;19913;-61
2021/06/29 13:40:33;;;;;;;;;;;26.30;99.90;;;;;;5050189;28;19948;-61
2021/06/29 13:43:13;;;;;;;;;;;26.10;99.90;;;;;;5050214;28;19913;-61
2021/06/29 13:45:43;;;;;;;;;;;25.20;99.90;;;;;;5050211;28;19964;-60
2021/06/29 13:48:09;;;;;;;;;;;23.80;99.90;;;;;;5049839;28;19913;-61
2021/06/29 13:50:35;;;;;;;;;;;22.20;99.90;;;;;;5049930;28;19962;-60
2021/06/29 13:53:06;;;;;;;;;;;20.60;99.90;;;;;;5049647;28;20281;-62
2021/06/29 13:55:35;;;;;;;;;;;19.20;1.00;;;;;;5032541;28;19924;-61
2021/06/29 13:58:20;;;;;;;;;;;18.00;1.00;;;;;;5048876;28;19934;-62
2021/06/29 14:00:46;;;;;;;;;;;17.60;1.00;;;;;;5049888;28;19923;-62
2021/06/29 14:03:15;;;;;;;;;;;17.30;1.00;;;;;;5050127;28;19913;-62
2021/06/29 14:05:44;;;;;;;;;;;17.20;1.00;;;;;;5049101;28;19917;-61
2021/06/29 14:08:11;;;;;;;;;;;17.30;1.00;;;;;;5052820;28;19916;-61
2021/06/29 14:10:37;;;;;;;;;;;17.30;1.00;;;;;;5049763;28;19915;-58
2021/06/29 14:13:02;;;;;;;;;;;17.40;1.00;;;;;;5050889;28;20285;-62
2021/06/29 14:15:28;;;;;;;;;;;17.50;1.00;;;;;;5069312;28;19919;-61
2021/06/29 14:17:54;;;;;;;;;;;17.50;1.00;;;;;;5051915;28;19917;-61
2021/06/29 14:20:19;;;;;;;;;;;17.60;1.00;;;;;;5049943;28;19975;-60
2021/06/29 14:22:44;;;;;;;;;;;17.50;1.00;;;;;;5048151;28;19951;-61
2021/06/29 14:25:11;;;;;;;;;;;17.50;1.00;;;;;;5049790;28;19920;-60